sensor_id;sensor_type;location;lat;lon;timestamp;temperature;humidity
33715;DHT22;20043;50.998;4.754;2023-09-30T00:01:53;14.30;99.90
33715;DHT22;20043;50.998;4.754;2023-09-30T00:04:18;14.30;99.90
33715;DHT22;20043;50.998;4.754;2023-09-30T00:06:44;14.30;99.90
33715;DHT22;20043;50.998;4.754;2023-09-30T00:09:10;14.30;99.90
33715;DHT22;20043;50.998;4.754;2023-09-30T00:11:37;14.20;99.90
33715;DHT22;20043;50.998;4.754;2023-09-30T00:14:02;14.20;99.90
33715;DHT22;20043;50.998;4.754;2023-09-30T00:16:28;14.30;99.90
33715;DHT22;20043;50.998;4.754;2023-09-30T00:18:54;14.30;99.90
33715;DHT22;20043;50.998;4.754;2023-09-30T00:21:19;14.40;99.90
33715;DHT22;20043;50.998;4.754;2023-09-30T00:23:45;14.30;99.90
33715;DHT22;20043;50.998;4.754;2023-09-30T00:26:10;14.40;99.90
33715;DHT22;20043;50.998;4.754;2023-09-30T00:28:36;14.40;99.90
33715;DHT22;20043;50.998;4.754;2023-09-30T00:31:07;14.40;99.90
33715;DHT22;20043;50.998;4.754;2023-09-30T00:33:34;14.50;99.90
33715;DHT22;20043;50.998;4.754;2023-09-30T00:35:59;14.40;99.90
33715;DHT22;20043;50.998;4.754;2023-09-30T00:38:30;14.40;99.90
33715;DHT22;20043;50.998;4.754;2023-09-30T00:40:56;14.40;99.90
33715;DHT22;20043;50.998;4.754;2023-09-30T00:43:21;14.40;99.90
33715;DHT22;20043;50.998;4.754;2023-09-30T00:46:02;14.50;99.90
33715;DHT22;20043;50.998;4.754;2023-09-30T00:48:34;14.50;99.90
33715;DHT22;20043;50.998;4.754;2023-09-30T00:51:00;14.50;99.90
33715;DHT22;20043;50.998;4.754;2023-09-30T00:53:27;14.40;99.90
33715;DHT22;20043;50.998;4.754;2023-09-30T00:55:54;14.40;99.90
33715;DHT22;20043;50.998;4.754;2023-09-30T00:58:22;14.40;99.90
33715;DHT22;20043;50.998;4.754;2023-09-30T01:00:51;14.30;99.90
33715;DHT22;20043;50.998;4.754;2023-09-30T01:03:17;14.30;99.90
33715;DHT22;20043;50.998;4.754;2023-09-30T01:05:43;14.30;99.90
33715;DHT22;20043;50.998;4.754;2023-09-30T01:08:08;14.30;99.90
33715;DHT22;20043;50.998;4.754;2023-09-30T01:10:34;14.20;99.90
33715;DHT22;20043;50.998;4.754;2023-09-30T01:13:00;14.10;99.90
33715;DHT22;20043;50.998;4.754;2023-09-30T01:15:25;14.10;99.90
33715;DHT22;20043;50.998;4.754;2023-09-30T01:17:51;14.00;99.90
33715;DHT22;20043;50.998;4.754;2023-09-30T01:20:17;14.10;99.90
33715;DHT22;20043;50.998;4.754;2023-09-30T01:22:44;14.10;99.90
33715;DHT22;20043;50.998;4.754;2023-09-30T01:25:11;14.20;99.90
33715;DHT22;20043;50.998;4.754;2023-09-30T01:27:36;14.10;99.90
33715;DHT22;20043;50.998;4.754;2023-09-30T01:30:02;14.20;99.90
33715;DHT22;20043;50.998;4.754;2023-09-30T01:32:28;14.20;99.90
33715;DHT22;20043;50.998;4.754;2023-09-30T01:34:54;14.10;99.90
33715;DHT22;20043;50.998;4.754;2023-09-30T01:37:19;14.10;99.90
33715;DHT22;20043;50.998;4.754;2023-09-30T01:39:45;14.00;99.90
33715;DHT22;20043;50.998;4.754;2023-09-30T01:42:11;13.90;99.90
33715;DHT22;20043;50.998;4.754;2023-09-30T01:44:37;13.90;99.90
33715;DHT22;20043;50.998;4.754;2023-09-30T01:47:02;13.90;99.90
33715;DHT22;20043;50.998;4.754;2023-09-30T01:49:28;13.80;99.90
33715;DHT22;20043;50.998;4.754;2023-09-30T01:51:54;13.90;99.90
33715;DHT22;20043;50.998;4.754;2023-09-30T01:54:20;13.90;99.90
33715;DHT22;20043;50.998;4.754;2023-09-30T01:56:45;13.90;99.90
33715;DHT22;20043;50.998;4.754;2023-09-30T01:59:11;14.00;99.90
33715;DHT22;20043;50.998;4.754;2023-09-30T02:01:36;13.90;99.90
33715;DHT22;20043;50.998;4.754;2023-09-30T02:04:10;13.80;99.90
33715;DHT22;20043;50.998;4.754;2023-09-30T02:06:36;13.70;99.90
33715;DHT22;20043;50.998;4.754;2023-09-30T02:09:02;13.70;99.90
33715;DHT22;20043;50.998;4.754;2023-09-30T02:11:28;13.70;99.90
33715;DHT22;20043;50.998;4.754;2023-09-30T02:13:54;13.70;99.90
33715;DHT22;20043;50.998;4.754;2023-09-30T02:16:20;13.80;99.90
33715;DHT22;20043;50.998;4.754;2023-09-30T02:18:45;13.80;99.90
33715;DHT22;20043;50.998;4.754;2023-09-30T02:21:11;13.80;99.90
33715;DHT22;20043;50.998;4.754;2023-09-30T02:23:37;13.70;99.90
33715;DHT22;20043;50.998;4.754;2023-09-30T02:26:03;13.70;99.90
33715;DHT22;20043;50.998;4.754;2023-09-30T02:28:29;13.70;99.90
33715;DHT22;20043;50.998;4.754;2023-09-30T02:30:58;13.60;99.90
33715;DHT22;20043;50.998;4.754;2023-09-30T02:33:24;13.50;99.90
33715;DHT22;20043;50.998;4.754;2023-09-30T02:35:51;13.40;99.90
33715;DHT22;20043;50.998;4.754;2023-09-30T02:38:17;13.40;99.90
33715;DHT22;20043;50.998;4.754;2023-09-30T02:40:44;13.40;99.90
33715;DHT22;20043;50.998;4.754;2023-09-30T02:43:12;13.40;99.90
33715;DHT22;20043;50.998;4.754;2023-09-30T02:45:38;13.30;99.90
33715;DHT22;20043;50.998;4.754;2023-09-30T02:48:04;13.30;99.90
33715;DHT22;20043;50.998;4.754;2023-09-30T02:50:32;13.30;99.90
33715;DHT22;20043;50.998;4.754;2023-09-30T02:52:57;13.40;99.90
33715;DHT22;20043;50.998;4.754;2023-09-30T02:55:23;13.40;99.90
33715;DHT22;20043;50.998;4.754;2023-09-30T02:57:48;13.40;99.90
33715;DHT22;20043;50.998;4.754;2023-09-30T03:00:14;13.50;99.90
33715;DHT22;20043;50.998;4.754;2023-09-30T03:02:55;13.50;99.90
33715;DHT22;20043;50.998;4.754;2023-09-30T03:05:21;13.50;99.90
33715;DHT22;20043;50.998;4.754;2023-09-30T03:07:48;13.50;99.90
33715;DHT22;20043;50.998;4.754;2023-09-30T03:10:16;13.50;99.90
33715;DHT22;20043;50.998;4.754;2023-09-30T03:13:00;13.50;99.90
33715;DHT22;20043;50.998;4.754;2023-09-30T03:15:33;13.40;99.90
33715;DHT22;20043;50.998;4.754;2023-09-30T03:17:59;13.50;99.90
33715;DHT22;20043;50.998;4.754;2023-09-30T03:20:25;13.50;99.90
33715;DHT22;20043;50.998;4.754;2023-09-30T03:22:51;13.50;99.90
33715;DHT22;20043;50.998;4.754;2023-09-30T03:25:20;13.50;99.90
33715;DHT22;20043;50.998;4.754;2023-09-30T03:27:47;13.30;99.90
33715;DHT22;20043;50.998;4.754;2023-09-30T03:30:14;13.30;99.90
33715;DHT22;20043;50.998;4.754;2023-09-30T03:32:41;13.20;99.90
33715;DHT22;20043;50.998;4.754;2023-09-30T03:35:08;13.30;99.90
33715;DHT22;20043;50.998;4.754;2023-09-30T03:37:46;13.30;99.90
33715;DHT22;20043;50.998;4.754;2023-09-30T03:40:13;13.40;99.90
33715;DHT22;20043;50.998;4.754;2023-09-30T03:42:53;13.50;99.90
33715;DHT22;20043;50.998;4.754;2023-09-30T03:45:19;13.60;99.90
33715;DHT22;20043;50.998;4.754;2023-09-30T03:47:45;13.50;99.90
33715;DHT22;20043;50.998;4.754;2023-09-30T03:50:11;13.60;99.90
33715;DHT22;20043;50.998;4.754;2023-09-30T03:52:41;13.40;99.90
33715;DHT22;20043;50.998;4.754;2023-09-30T03:55:11;13.40;99.90
33715;DHT22;20043;50.998;4.754;2023-09-30T03:57:37;13.40;99.90
33715;DHT22;20043;50.998;4.754;2023-09-30T04:00:03;13.30;99.90
33715;DHT22;20043;50.998;4.754;2023-09-30T04:02:32;13.30;99.90
33715;DHT22;20043;50.998;4.754;2023-09-30T04:04:57;13.20;99.90
33715;DHT22;20043;50.998;4.754;2023-09-30T04:07:24;13.20;99.90
33715;DHT22;20043;50.998;4.754;2023-09-30T04:09:54;13.20;99.90
33715;DHT22;20043;50.998;4.754;2023-09-30T04:12:21;13.10;99.90
33715;DHT22;20043;50.998;4.754;2023-09-30T04:14:49;13.20;99.90
33715;DHT22;20043;50.998;4.754;2023-09-30T04:17:14;13.20;99.90
33715;DHT22;20043;50.998;4.754;2023-09-30T04:19:40;13.20;99.90
33715;DHT22;20043;50.998;4.754;2023-09-30T04:22:06;13.30;99.90
33715;DHT22;20043;50.998;4.754;2023-09-30T04:24:31;13.30;99.90
33715;DHT22;20043;50.998;4.754;2023-09-30T04:26:57;13.30;99.90
33715;DHT22;20043;50.998;4.754;2023-09-30T04:29:27;13.30;99.90
33715;DHT22;20043;50.998;4.754;2023-09-30T04:31:53;13.30;99.90
33715;DHT22;20043;50.998;4.754;2023-09-30T04:34:19;13.20;99.90
33715;DHT22;20043;50.998;4.754;2023-09-30T04:36:46;13.20;99.90
33715;DHT22;20043;50.998;4.754;2023-09-30T04:39:13;13.20;99.90
33715;DHT22;20043;50.998;4.754;2023-09-30T04:41:40;13.20;99.90
33715;DHT22;20043;50.998;4.754;2023-09-30T04:44:07;13.20;99.90
33715;DHT22;20043;50.998;4.754;2023-09-30T04:46:33;13.30;99.90
33715;DHT22;20043;50.998;4.754;2023-09-30T04:48:59;13.30;99.90
33715;DHT22;20043;50.998;4.754;2023-09-30T04:51:24;13.30;99.90
33715;DHT22;20043;50.998;4.754;2023-09-30T04:53:51;13.30;99.90
33715;DHT22;20043;50.998;4.754;2023-09-30T04:56:16;13.20;99.90
33715;DHT22;20043;50.998;4.754;2023-09-30T04:58:42;13.20;99.90
33715;DHT22;20043;50.998;4.754;2023-09-30T05:01:08;13.30;99.90
33715;DHT22;20043;50.998;4.754;2023-09-30T05:03:34;13.30;99.90
33715;DHT22;20043;50.998;4.754;2023-09-30T05:06:00;13.40;99.90
33715;DHT22;20043;50.998;4.754;2023-09-30T05:08:26;13.40;99.90
33715;DHT22;20043;50.998;4.754;2023-09-30T05:10:55;13.30;99.90
33715;DHT22;20043;50.998;4.754;2023-09-30T05:13:21;13.30;99.90
33715;DHT22;20043;50.998;4.754;2023-09-30T05:15:49;13.40;99.90
33715;DHT22;20043;50.998;4.754;2023-09-30T05:18:15;13.40;99.90
33715;DHT22;20043;50.998;4.754;2023-09-30T05:20:41;13.40;99.90
33715;DHT22;20043;50.998;4.754;2023-09-30T05:23:06;13.40;99.90
33715;DHT22;20043;50.998;4.754;2023-09-30T05:25:38;13.40;99.90
33715;DHT22;20043;50.998;4.754;2023-09-30T05:28:05;13.40;99.90
33715;DHT22;20043;50.998;4.754;2023-09-30T05:30:32;13.40;99.90
33715;DHT22;20043;50.998;4.754;2023-09-30T05:32:59;13.40;99.90
33715;DHT22;20043;50.998;4.754;2023-09-30T05:35:25;13.40;99.90
33715;DHT22;20043;50.998;4.754;2023-09-30T05:37:51;13.50;99.90
33715;DHT22;20043;50.998;4.754;2023-09-30T05:40:20;13.60;99.90
33715;DHT22;20043;50.998;4.754;2023-09-30T05:42:48;13.60;99.90
33715;DHT22;20043;50.998;4.754;2023-09-30T05:45:16;13.60;99.90
33715;DHT22;20043;50.998;4.754;2023-09-30T05:47:42;13.70;99.90
33715;DHT22;20043;50.998;4.754;2023-09-30T05:50:09;13.70;99.90
33715;DHT22;20043;50.998;4.754;2023-09-30T05:52:40;13.70;99.90
33715;DHT22;20043;50.998;4.754;2023-09-30T05:55:06;13.60;99.90
33715;DHT22;20043;50.998;4.754;2023-09-30T05:57:32;13.70;99.90
33715;DHT22;20043;50.998;4.754;2023-09-30T05:59:58;13.70;99.90
33715;DHT22;20043;50.998;4.754;2023-09-30T06:02:23;13.90;99.90
33715;DHT22;20043;50.998;4.754;2023-09-30T06:04:50;13.90;99.90
33715;DHT22;20043;50.998;4.754;2023-09-30T06:07:18;13.90;99.90
33715;DHT22;20043;50.998;4.754;2023-09-30T06:09:45;13.90;99.90
33715;DHT22;20043;50.998;4.754;2023-09-30T06:12:13;13.90;99.90
33715;DHT22;20043;50.998;4.754;2023-09-30T06:14:39;13.90;99.90
33715;DHT22;20043;50.998;4.754;2023-09-30T06:17:07;13.90;99.90
33715;DHT22;20043;50.998;4.754;2023-09-30T06:19:32;14.00;99.90
33715;DHT22;20043;50.998;4.754;2023-09-30T06:21:58;13.80;99.90
33715;DHT22;20043;50.998;4.754;2023-09-30T06:24:24;13.80;99.90
33715;DHT22;20043;50.998;4.754;2023-09-30T06:26:50;13.80;99.90
33715;DHT22;20043;50.998;4.754;2023-09-30T06:29:15;13.90;99.90
33715;DHT22;20043;50.998;4.754;2023-09-30T06:31:41;13.90;99.90
33715;DHT22;20043;50.998;4.754;2023-09-30T06:34:06;13.90;99.90
33715;DHT22;20043;50.998;4.754;2023-09-30T06:36:32;14.00;99.90
33715;DHT22;20043;50.998;4.754;2023-09-30T06:38:58;14.10;99.90
33715;DHT22;20043;50.998;4.754;2023-09-30T06:41:24;14.20;99.90
33715;DHT22;20043;50.998;4.754;2023-09-30T06:43:50;14.30;99.90
33715;DHT22;20043;50.998;4.754;2023-09-30T06:46:17;14.40;99.90
33715;DHT22;20043;50.998;4.754;2023-09-30T06:48:42;14.60;99.90
33715;DHT22;20043;50.998;4.754;2023-09-30T06:51:13;14.70;99.90
33715;DHT22;20043;50.998;4.754;2023-09-30T06:53:40;14.70;99.90
33715;DHT22;20043;50.998;4.754;2023-09-30T06:56:06;14.80;99.90
33715;DHT22;20043;50.998;4.754;2023-09-30T06:58:32;14.80;99.90
33715;DHT22;20043;50.998;4.754;2023-09-30T07:00:58;15.00;99.90
33715;DHT22;20043;50.998;4.754;2023-09-30T07:03:24;15.20;99.90
33715;DHT22;20043;50.998;4.754;2023-09-30T07:05:50;15.20;99.90
33715;DHT22;20043;50.998;4.754;2023-09-30T07:08:18;15.30;99.90
33715;DHT22;20043;50.998;4.754;2023-09-30T07:10:46;15.30;99.90
33715;DHT22;20043;50.998;4.754;2023-09-30T07:13:15;15.40;99.90
33715;DHT22;20043;50.998;4.754;2023-09-30T07:15:41;15.40;99.90
33715;DHT22;20043;50.998;4.754;2023-09-30T07:18:07;15.40;99.90
33715;DHT22;20043;50.998;4.754;2023-09-30T07:20:33;15.50;99.90
33715;DHT22;20043;50.998;4.754;2023-09-30T07:23:01;15.50;99.90
33715;DHT22;20043;50.998;4.754;2023-09-30T07:25:29;15.60;99.90
33715;DHT22;20043;50.998;4.754;2023-09-30T07:27:57;15.60;99.90
33715;DHT22;20043;50.998;4.754;2023-09-30T07:30:24;15.60;99.90
33715;DHT22;20043;50.998;4.754;2023-09-30T07:32:50;15.60;99.90
33715;DHT22;20043;50.998;4.754;2023-09-30T07:35:16;15.70;99.90
33715;DHT22;20043;50.998;4.754;2023-09-30T07:37:42;15.80;99.90
33715;DHT22;20043;50.998;4.754;2023-09-30T07:40:08;15.90;99.90
33715;DHT22;20043;50.998;4.754;2023-09-30T07:42:35;15.90;99.90
33715;DHT22;20043;50.998;4.754;2023-09-30T07:45:02;16.00;99.90
33715;DHT22;20043;50.998;4.754;2023-09-30T07:47:29;16.10;99.90
33715;DHT22;20043;50.998;4.754;2023-09-30T07:49:56;16.10;99.90
33715;DHT22;20043;50.998;4.754;2023-09-30T07:52:22;16.00;99.90
33715;DHT22;20043;50.998;4.754;2023-09-30T07:54:47;16.00;99.90
33715;DHT22;20043;50.998;4.754;2023-09-30T07:57:13;16.10;99.90
33715;DHT22;20043;50.998;4.754;2023-09-30T07:59:38;16.20;99.90
33715;DHT22;20043;50.998;4.754;2023-09-30T08:02:04;16.20;99.90
33715;DHT22;20043;50.998;4.754;2023-09-30T08:04:30;16.30;99.90
33715;DHT22;20043;50.998;4.754;2023-09-30T08:06:56;16.40;99.90
33715;DHT22;20043;50.998;4.754;2023-09-30T08:09:22;16.50;99.90
33715;DHT22;20043;50.998;4.754;2023-09-30T08:11:50;16.50;99.90
33715;DHT22;20043;50.998;4.754;2023-09-30T08:14:16;16.60;99.90
33715;DHT22;20043;50.998;4.754;2023-09-30T08:16:42;16.80;99.90
33715;DHT22;20043;50.998;4.754;2023-09-30T08:19:08;16.90;99.90
33715;DHT22;20043;50.998;4.754;2023-09-30T08:21:34;17.10;99.90
33715;DHT22;20043;50.998;4.754;2023-09-30T08:24:01;17.20;99.90
33715;DHT22;20043;50.998;4.754;2023-09-30T08:26:27;17.30;99.90
33715;DHT22;20043;50.998;4.754;2023-09-30T08:28:53;17.40;99.90
33715;DHT22;20043;50.998;4.754;2023-09-30T08:31:18;17.50;99.90
33715;DHT22;20043;50.998;4.754;2023-09-30T08:33:45;17.50;99.90
33715;DHT22;20043;50.998;4.754;2023-09-30T08:36:11;17.50;99.90
33715;DHT22;20043;50.998;4.754;2023-09-30T08:38:38;17.60;99.90
33715;DHT22;20043;50.998;4.754;2023-09-30T08:41:04;17.80;99.90
33715;DHT22;20043;50.998;4.754;2023-09-30T08:43:30;17.80;99.90
33715;DHT22;20043;50.998;4.754;2023-09-30T08:45:58;17.90;99.90
33715;DHT22;20043;50.998;4.754;2023-09-30T08:48:26;18.10;99.90
33715;DHT22;20043;50.998;4.754;2023-09-30T08:50:55;18.10;99.90
33715;DHT22;20043;50.998;4.754;2023-09-30T08:53:23;18.00;99.90
33715;DHT22;20043;50.998;4.754;2023-09-30T08:55:52;17.90;99.90
33715;DHT22;20043;50.998;4.754;2023-09-30T08:58:19;17.70;99.90
33715;DHT22;20043;50.998;4.754;2023-09-30T09:00:45;17.70;99.90
33715;DHT22;20043;50.998;4.754;2023-09-30T09:03:11;17.80;99.90
33715;DHT22;20043;50.998;4.754;2023-09-30T09:05:37;17.80;99.90
33715;DHT22;20043;50.998;4.754;2023-09-30T09:08:02;17.80;99.90
33715;DHT22;20043;50.998;4.754;2023-09-30T09:10:28;17.90;99.90
33715;DHT22;20043;50.998;4.754;2023-09-30T09:12:58;18.10;99.90
33715;DHT22;20043;50.998;4.754;2023-09-30T09:15:25;18.20;99.90
33715;DHT22;20043;50.998;4.754;2023-09-30T09:17:51;18.30;99.90
33715;DHT22;20043;50.998;4.754;2023-09-30T09:20:20;18.40;99.90
33715;DHT22;20043;50.998;4.754;2023-09-30T09:22:48;18.50;99.90
33715;DHT22;20043;50.998;4.754;2023-09-30T09:25:16;18.60;99.90
33715;DHT22;20043;50.998;4.754;2023-09-30T09:27:42;18.80;99.90
33715;DHT22;20043;50.998;4.754;2023-09-30T09:30:18;19.00;99.90
33715;DHT22;20043;50.998;4.754;2023-09-30T09:33:11;19.10;99.90
33715;DHT22;20043;50.998;4.754;2023-09-30T09:35:37;19.00;99.90
33715;DHT22;20043;50.998;4.754;2023-09-30T09:38:04;19.00;99.90
33715;DHT22;20043;50.998;4.754;2023-09-30T09:40:34;19.10;99.90
33715;DHT22;20043;50.998;4.754;2023-09-30T09:43:01;19.10;99.90
33715;DHT22;20043;50.998;4.754;2023-09-30T09:45:36;19.10;99.90
33715;DHT22;20043;50.998;4.754;2023-09-30T09:48:04;19.20;99.90
33715;DHT22;20043;50.998;4.754;2023-09-30T09:50:30;19.40;99.90
33715;DHT22;20043;50.998;4.754;2023-09-30T09:52:58;19.50;99.90
33715;DHT22;20043;50.998;4.754;2023-09-30T09:55:26;19.50;99.90
33715;DHT22;20043;50.998;4.754;2023-09-30T09:57:53;19.70;99.90
33715;DHT22;20043;50.998;4.754;2023-09-30T10:00:24;19.60;99.90
33715;DHT22;20043;50.998;4.754;2023-09-30T10:02:50;19.50;99.90
33715;DHT22;20043;50.998;4.754;2023-09-30T10:05:17;19.50;99.90
33715;DHT22;20043;50.998;4.754;2023-09-30T10:07:57;19.60;99.90
33715;DHT22;20043;50.998;4.754;2023-09-30T10:10:26;19.60;99.90
33715;DHT22;20043;50.998;4.754;2023-09-30T10:12:53;19.80;99.90
33715;DHT22;20043;50.998;4.754;2023-09-30T10:18:09;20.00;99.90
33715;DHT22;20043;50.998;4.754;2023-09-30T10:20:37;20.10;99.90
33715;DHT22;20043;50.998;4.754;2023-09-30T10:23:30;20.20;99.90
33715;DHT22;20043;50.998;4.754;2023-09-30T10:28:42;20.20;99.90
33715;DHT22;20043;50.998;4.754;2023-09-30T10:36:33;20.60;99.90
33715;DHT22;20043;50.998;4.754;2023-09-30T10:38:59;20.60;99.90
33715;DHT22;20043;50.998;4.754;2023-09-30T10:47:16;20.60;99.90
33715;DHT22;20043;50.998;4.754;2023-09-30T10:49:49;20.50;99.90
33715;DHT22;20043;50.998;4.754;2023-09-30T10:52:21;20.50;99.90
33715;DHT22;20043;50.998;4.754;2023-09-30T10:54:49;20.60;99.90
33715;DHT22;20043;50.998;4.754;2023-09-30T10:57:26;20.80;99.90
33715;DHT22;20043;50.998;4.754;2023-09-30T11:00:12;20.80;99.90
33715;DHT22;20043;50.998;4.754;2023-09-30T11:02:48;20.90;99.90
33715;DHT22;20043;50.998;4.754;2023-09-30T11:05:14;21.00;99.90
33715;DHT22;20043;50.998;4.754;2023-09-30T11:07:41;21.10;99.90
33715;DHT22;20043;50.998;4.754;2023-09-30T11:10:07;21.10;99.90
33715;DHT22;20043;50.998;4.754;2023-09-30T11:12:33;21.20;99.90
33715;DHT22;20043;50.998;4.754;2023-09-30T11:15:01;21.20;99.90
33715;DHT22;20043;50.998;4.754;2023-09-30T11:17:27;21.10;99.90
33715;DHT22;20043;50.998;4.754;2023-09-30T11:19:52;21.00;99.90
33715;DHT22;20043;50.998;4.754;2023-09-30T11:22:19;20.80;99.90
33715;DHT22;20043;50.998;4.754;2023-09-30T11:24:45;20.80;99.90
33715;DHT22;20043;50.998;4.754;2023-09-30T11:27:11;20.90;99.90
33715;DHT22;20043;50.998;4.754;2023-09-30T11:29:48;20.90;99.90
33715;DHT22;20043;50.998;4.754;2023-09-30T11:32:26;21.20;99.90
33715;DHT22;20043;50.998;4.754;2023-09-30T11:34:52;21.30;99.90
33715;DHT22;20043;50.998;4.754;2023-09-30T11:37:18;21.30;99.90
33715;DHT22;20043;50.998;4.754;2023-09-30T11:39:44;21.40;99.90
33715;DHT22;20043;50.998;4.754;2023-09-30T11:42:17;21.60;99.90
33715;DHT22;20043;50.998;4.754;2023-09-30T11:44:45;21.70;99.90
33715;DHT22;20043;50.998;4.754;2023-09-30T11:47:13;21.70;99.90
33715;DHT22;20043;50.998;4.754;2023-09-30T11:49:42;21.80;99.90
33715;DHT22;20043;50.998;4.754;2023-09-30T11:52:13;21.70;99.90
33715;DHT22;20043;50.998;4.754;2023-09-30T11:54:42;21.90;99.90
33715;DHT22;20043;50.998;4.754;2023-09-30T11:57:15;22.00;99.90
33715;DHT22;20043;50.998;4.754;2023-09-30T11:59:43;22.10;99.90
33715;DHT22;20043;50.998;4.754;2023-09-30T12:02:09;22.20;99.90
33715;DHT22;20043;50.998;4.754;2023-09-30T12:04:38;22.30;99.90
33715;DHT22;20043;50.998;4.754;2023-09-30T12:07:04;22.20;99.90
33715;DHT22;20043;50.998;4.754;2023-09-30T12:09:32;22.20;99.90
33715;DHT22;20043;50.998;4.754;2023-09-30T12:12:00;22.10;99.90
33715;DHT22;20043;50.998;4.754;2023-09-30T12:14:26;22.10;99.90
33715;DHT22;20043;50.998;4.754;2023-09-30T12:16:55;22.10;99.90
33715;DHT22;20043;50.998;4.754;2023-09-30T12:19:20;22.10;99.90
33715;DHT22;20043;50.998;4.754;2023-09-30T12:21:47;21.90;99.90
33715;DHT22;20043;50.998;4.754;2023-09-30T12:24:17;21.90;99.90
33715;DHT22;20043;50.998;4.754;2023-09-30T12:26:47;21.90;99.90
33715;DHT22;20043;50.998;4.754;2023-09-30T12:29:20;22.00;99.90
33715;DHT22;20043;50.998;4.754;2023-09-30T12:31:48;22.20;99.90
33715;DHT22;20043;50.998;4.754;2023-09-30T12:34:14;22.30;99.90
33715;DHT22;20043;50.998;4.754;2023-09-30T12:36:40;22.40;99.90
33715;DHT22;20043;50.998;4.754;2023-09-30T12:39:07;22.20;99.90
33715;DHT22;20043;50.998;4.754;2023-09-30T12:41:44;22.20;99.90
33715;DHT22;20043;50.998;4.754;2023-09-30T12:44:10;22.20;99.90
33715;DHT22;20043;50.998;4.754;2023-09-30T12:46:37;22.40;99.90
33715;DHT22;20043;50.998;4.754;2023-09-30T12:49:05;22.40;99.90
33715;DHT22;20043;50.998;4.754;2023-09-30T12:51:31;22.50;99.90
33715;DHT22;20043;50.998;4.754;2023-09-30T12:53:58;22.40;99.90
33715;DHT22;20043;50.998;4.754;2023-09-30T12:56:24;22.20;99.90
33715;DHT22;20043;50.998;4.754;2023-09-30T12:58:50;22.10;99.90
33715;DHT22;20043;50.998;4.754;2023-09-30T13:01:15;22.00;99.90
33715;DHT22;20043;50.998;4.754;2023-09-30T13:03:44;22.00;99.90
33715;DHT22;20043;50.998;4.754;2023-09-30T13:06:10;22.10;99.90
33715;DHT22;20043;50.998;4.754;2023-09-30T13:08:42;22.20;99.90
33715;DHT22;20043;50.998;4.754;2023-09-30T13:11:09;22.40;99.90
33715;DHT22;20043;50.998;4.754;2023-09-30T13:13:34;22.40;99.90
33715;DHT22;20043;50.998;4.754;2023-09-30T13:16:01;22.20;99.90
33715;DHT22;20043;50.998;4.754;2023-09-30T13:18:27;22.00;99.90
33715;DHT22;20043;50.998;4.754;2023-09-30T13:20:53;22.00;99.90
33715;DHT22;20043;50.998;4.754;2023-09-30T13:23:20;22.00;99.90
33715;DHT22;20043;50.998;4.754;2023-09-30T13:25:46;22.00;99.90
33715;DHT22;20043;50.998;4.754;2023-09-30T13:28:13;22.00;99.90
33715;DHT22;20043;50.998;4.754;2023-09-30T13:30:38;22.20;99.90
33715;DHT22;20043;50.998;4.754;2023-09-30T13:33:04;22.50;99.90
33715;DHT22;20043;50.998;4.754;2023-09-30T13:35:30;22.70;99.90
33715;DHT22;20043;50.998;4.754;2023-09-30T13:37:56;22.90;99.90
33715;DHT22;20043;50.998;4.754;2023-09-30T13:40:22;23.00;99.90
33715;DHT22;20043;50.998;4.754;2023-09-30T13:42:49;23.10;99.90
33715;DHT22;20043;50.998;4.754;2023-09-30T13:45:14;23.10;99.90
33715;DHT22;20043;50.998;4.754;2023-09-30T13:47:43;23.00;99.90
33715;DHT22;20043;50.998;4.754;2023-09-30T13:50:08;22.90;99.90
33715;DHT22;20043;50.998;4.754;2023-09-30T13:52:34;22.80;99.90
33715;DHT22;20043;50.998;4.754;2023-09-30T13:55:00;22.80;99.90
33715;DHT22;20043;50.998;4.754;2023-09-30T13:57:27;22.80;99.90
33715;DHT22;20043;50.998;4.754;2023-09-30T13:59:52;22.90;99.90
33715;DHT22;20043;50.998;4.754;2023-09-30T14:02:18;22.70;99.90
33715;DHT22;20043;50.998;4.754;2023-09-30T14:04:44;22.60;99.90
33715;DHT22;20043;50.998;4.754;2023-09-30T14:07:10;22.50;99.90
33715;DHT22;20043;50.998;4.754;2023-09-30T14:09:36;22.60;99.90
33715;DHT22;20043;50.998;4.754;2023-09-30T14:12:03;22.50;99.90
33715;DHT22;20043;50.998;4.754;2023-09-30T14:14:33;22.60;99.90
33715;DHT22;20043;50.998;4.754;2023-09-30T14:17:02;22.70;99.90
33715;DHT22;20043;50.998;4.754;2023-09-30T14:19:35;22.60;99.90
33715;DHT22;20043;50.998;4.754;2023-09-30T14:22:01;22.40;99.90
33715;DHT22;20043;50.998;4.754;2023-09-30T14:24:27;22.50;99.90
33715;DHT22;20043;50.998;4.754;2023-09-30T14:26:52;22.50;99.90
33715;DHT22;20043;50.998;4.754;2023-09-30T14:29:21;22.60;99.90
33715;DHT22;20043;50.998;4.754;2023-09-30T14:31:46;22.70;99.90
33715;DHT22;20043;50.998;4.754;2023-09-30T14:34:12;22.80;99.90
33715;DHT22;20043;50.998;4.754;2023-09-30T14:36:38;22.80;99.90
33715;DHT22;20043;50.998;4.754;2023-09-30T14:39:04;22.70;99.90
33715;DHT22;20043;50.998;4.754;2023-09-30T14:41:30;22.70;99.90
33715;DHT22;20043;50.998;4.754;2023-09-30T14:43:56;22.70;99.90
33715;DHT22;20043;50.998;4.754;2023-09-30T14:46:21;22.70;99.90
33715;DHT22;20043;50.998;4.754;2023-09-30T14:48:47;22.70;99.90
33715;DHT22;20043;50.998;4.754;2023-09-30T14:51:13;22.70;99.90
33715;DHT22;20043;50.998;4.754;2023-09-30T14:53:38;22.70;99.90
33715;DHT22;20043;50.998;4.754;2023-09-30T14:56:15;22.60;99.90
33715;DHT22;20043;50.998;4.754;2023-09-30T14:58:41;22.40;99.90
33715;DHT22;20043;50.998;4.754;2023-09-30T15:01:10;22.40;99.90
33715;DHT22;20043;50.998;4.754;2023-09-30T15:03:36;22.50;99.90
33715;DHT22;20043;50.998;4.754;2023-09-30T15:06:03;22.50;99.90
33715;DHT22;20043;50.998;4.754;2023-09-30T15:08:30;22.50;99.90
33715;DHT22;20043;50.998;4.754;2023-09-30T15:10:58;22.60;99.90
33715;DHT22;20043;50.998;4.754;2023-09-30T15:13:24;22.70;99.90
33715;DHT22;20043;50.998;4.754;2023-09-30T15:15:50;22.60;99.90
33715;DHT22;20043;50.998;4.754;2023-09-30T15:18:15;22.60;99.90
33715;DHT22;20043;50.998;4.754;2023-09-30T15:20:41;22.50;99.90
33715;DHT22;20043;50.998;4.754;2023-09-30T15:23:07;22.40;99.90
33715;DHT22;20043;50.998;4.754;2023-09-30T15:25:33;22.30;99.90
33715;DHT22;20043;50.998;4.754;2023-09-30T15:27:58;22.20;99.90
33715;DHT22;20043;50.998;4.754;2023-09-30T15:30:24;22.20;99.90
33715;DHT22;20043;50.998;4.754;2023-09-30T15:32:56;22.10;99.90
33715;DHT22;20043;50.998;4.754;2023-09-30T15:35:21;21.90;99.90
33715;DHT22;20043;50.998;4.754;2023-09-30T15:37:47;21.90;99.90
33715;DHT22;20043;50.998;4.754;2023-09-30T15:40:13;21.70;99.90
33715;DHT22;20043;50.998;4.754;2023-09-30T15:42:43;21.60;99.90
33715;DHT22;20043;50.998;4.754;2023-09-30T15:45:09;21.60;99.90
33715;DHT22;20043;50.998;4.754;2023-09-30T15:47:36;21.50;99.90